Time;durP1;ratioP1;P1;durP2;ratioP2;P2;SDS_P1;SDS_P2;PMS_P1;PMS_P2;Temp;Humidity;BMP_temperature;BMP_pressure;BME280_temperature;BME280_humidity;BME280_pressure;Samples;Min_cycle;Max_cycle;Signal;HPM_P1;HPM_P2
2022/02/11 00:01:25;;;;;;;;;;;21.60;31.70;;;;;;486491;244;1524;-38
2022/02/11 00:05:39;;;;;;;;;;;21.60;31.70;;;;;;487207;243;2124;-38
2022/02/11 00:07:26;;;;;;;;;;;21.60;31.70;;;;;;486174;244;2055;-38
2022/02/11 00:09:27;;;;;;;;;;;21.60;31.70;;;;;;486945;243;1173;-38
2022/02/11 00:11:29;;;;;;;;;;;21.60;31.70;;;;;;486852;243;1235;-38
2022/02/11 00:13:30;;;;;;;;;;;21.60;31.70;;;;;;487080;243;1318;-39
2022/02/11 00:15:41;;;;;;;;;;;21.70;31.70;;;;;;487409;243;1173;-38
2022/02/11 00:17:39;;;;;;;;;;;21.70;31.70;;;;;;486686;244;2105;-38
2022/02/11 00:19:40;;;;;;;;;;;21.70;31.70;;;;;;487370;243;1095;-38
2022/02/11 00:21:42;;;;;;;;;;;21.60;31.70;;;;;;486944;243;1219;-38
2022/02/11 00:23:43;;;;;;;;;;;21.70;31.70;;;;;;487349;243;1221;-38
2022/02/11 00:25:49;;;;;;;;;;;21.70;31.70;;;;;;487359;243;2119;-38
2022/02/11 00:28:28;;;;;;;;;;;21.70;31.70;;;;;;486716;244;2221;-38
2022/02/11 00:30:33;;;;;;;;;;;21.70;31.60;;;;;;486122;245;1686;-38
2022/02/11 00:32:22;;;;;;;;;;;21.70;31.60;;;;;;485685;244;2260;-39
2022/02/11 00:34:19;;;;;;;;;;;21.70;31.70;;;;;;486979;244;2030;-38
2022/02/11 00:36:22;;;;;;;;;;;21.70;31.70;;;;;;486811;244;1577;-38
2022/02/11 00:38:25;;;;;;;;;;;21.60;31.80;;;;;;486730;244;1340;-38
2022/02/11 00:40:37;;;;;;;;;;;21.60;31.70;;;;;;487103;244;1523;-38
2022/02/11 00:53:20;;;;;;;;;;;21.80;31.60;;;;;;486894;243;1233;-38
2022/02/11 01:03:35;;;;;;;;;;;21.60;31.80;;;;;;487437;244;1047;-38
2022/02/11 01:05:28;;;;;;;;;;;21.60;31.80;;;;;;486907;244;2320;-38
2022/02/11 01:07:29;;;;;;;;;;;21.60;31.80;;;;;;486883;243;1188;-38
2022/02/11 01:09:32;;;;;;;;;;;21.60;31.80;;;;;;487457;243;1041;-38
2022/02/11 01:11:37;;;;;;;;;;;21.60;31.80;;;;;;487081;244;2370;-38
2022/02/11 01:13:33;;;;;;;;;;;21.70;31.80;;;;;;486692;244;1979;-38
2022/02/11 01:15:37;;;;;;;;;;;21.60;31.80;;;;;;487436;243;1461;-39
2022/02/11 01:17:40;;;;;;;;;;;21.60;31.80;;;;;;486730;244;2038;-38
2022/02/11 01:19:46;;;;;;;;;;;21.70;31.80;;;;;;486711;244;2542;-38
2022/02/11 01:21:47;;;;;;;;;;;21.70;31.80;;;;;;486846;244;2210;-38
2022/02/11 01:23:50;;;;;;;;;;;21.60;31.80;;;;;;487795;243;1698;-38
2022/02/11 01:26:03;;;;;;;;;;;21.60;31.80;;;;;;487684;244;2131;-38
2022/02/11 01:28:04;;;;;;;;;;;21.60;31.80;;;;;;487158;244;1865;-38
2022/02/11 01:30:26;;;;;;;;;;;21.60;31.80;;;;;;487546;243;2198;-38
2022/02/11 01:32:29;;;;;;;;;;;21.60;31.80;;;;;;487216;243;2245;-38
2022/02/11 01:34:40;;;;;;;;;;;21.70;31.80;;;;;;487673;243;1858;-38
2022/02/11 01:36:43;;;;;;;;;;;21.70;31.80;;;;;;486888;244;1805;-39
2022/02/11 01:38:47;;;;;;;;;;;21.70;31.80;;;;;;487628;243;2231;-38
2022/02/11 01:41:53;;;;;;;;;;;21.70;31.80;;;;;;487405;243;1765;-38
2022/02/11 01:48:23;;;;;;;;;;;21.60;31.80;;;;;;488140;243;1343;-38
2022/02/11 01:50:28;;;;;;;;;;;21.70;31.80;;;;;;486792;244;2131;-38
2022/02/11 01:52:26;;;;;;;;;;;21.70;31.70;;;;;;487042;243;1868;-38
2022/02/11 01:54:37;;;;;;;;;;;21.70;31.70;;;;;;487314;244;2378;-38
2022/02/11 01:56:37;;;;;;;;;;;21.70;31.80;;;;;;486061;244;2194;-38
2022/02/11 01:58:59;;;;;;;;;;;21.70;31.80;;;;;;486940;244;2382;-38
2022/02/11 02:03:32;;;;;;;;;;;21.70;31.80;;;;;;486731;245;1692;-38
2022/02/11 02:10:30;;;;;;;;;;;21.60;31.90;;;;;;486934;244;1064;-38
2022/02/11 02:12:34;;;;;;;;;;;21.60;31.90;;;;;;485467;245;1204;-38
2022/02/11 02:14:56;;;;;;;;;;;21.60;31.90;;;;;;486583;244;2169;-38
2022/02/11 02:17:32;;;;;;;;;;;21.60;31.90;;;;;;485987;245;1687;-38
2022/02/11 02:21:58;;;;;;;;;;;21.60;31.90;;;;;;472682;252;1180;-38
2022/02/11 02:24:04;;;;;;;;;;;21.70;32.00;;;;;;486119;244;2223;-38
2022/02/11 02:26:10;;;;;;;;;;;21.60;31.90;;;;;;486583;244;2202;-38
2022/02/11 02:28:42;;;;;;;;;;;21.60;31.90;;;;;;486420;244;1821;-38
2022/02/11 02:37:54;;;;;;;;;;;21.60;31.90;;;;;;487039;243;1200;-38
2022/02/11 02:58:32;;;;;;;;;;;21.70;31.80;;;;;;486947;244;1223;-38
2022/02/11 03:00:57;;;;;;;;;;;21.70;31.80;;;;;;487216;244;2101;-38
2022/02/11 03:14:55;;;;;;;;;;;21.60;32.00;;;;;;486917;244;1224;-38
2022/02/11 03:17:38;;;;;;;;;;;21.60;31.90;;;;;;485820;244;2316;-38
2022/02/11 03:36:01;;;;;;;;;;;21.60;32.00;;;;;;487120;244;1066;-38
2022/02/11 03:49:21;;;;;;;;;;;21.60;32.00;;;;;;486879;244;1043;-38
2022/02/11 03:51:31;;;;;;;;;;;21.60;32.00;;;;;;486615;244;2009;-38
2022/02/11 03:56:23;;;;;;;;;;;21.60;32.00;;;;;;472546;252;1153;-38
2022/02/11 03:58:44;;;;;;;;;;;21.60;32.00;;;;;;486022;244;2110;-38
2022/02/11 04:56:25;;;;;;;;;;;21.60;32.00;;;;;;486874;244;1113;-38
2022/02/11 05:00:44;;;;;;;;;;;21.70;32.00;;;;;;487343;244;1198;-38
2022/02/11 05:02:46;;;;;;;;;;;21.60;32.00;;;;;;486863;243;1305;-38
2022/02/11 05:04:47;;;;;;;;;;;21.60;32.10;;;;;;486867;243;2457;-38
2022/02/11 05:06:48;;;;;;;;;;;21.60;32.10;;;;;;487261;243;2131;-38
2022/02/11 05:08:50;;;;;;;;;;;21.50;32.10;;;;;;486859;243;1958;-38
2022/02/11 05:10:51;;;;;;;;;;;21.60;32.00;;;;;;486806;243;1303;-38
2022/02/11 05:12:53;;;;;;;;;;;21.60;32.00;;;;;;487218;243;1213;-39
2022/02/11 05:14:54;;;;;;;;;;;21.70;32.10;;;;;;486781;243;1178;-38
2022/02/11 05:16:55;;;;;;;;;;;21.60;32.10;;;;;;486925;243;1178;-38
2022/02/11 05:18:56;;;;;;;;;;;21.60;32.10;;;;;;486820;243;1122;-38
2022/02/11 05:20:58;;;;;;;;;;;21.60;32.00;;;;;;486769;243;1196;-38
2022/02/11 05:22:59;;;;;;;;;;;21.60;32.10;;;;;;486737;243;1333;-38
2022/02/11 05:25:00;;;;;;;;;;;21.60;32.10;;;;;;486892;243;1184;-38
2022/02/11 05:27:02;;;;;;;;;;;21.60;32.10;;;;;;486791;243;2135;-38
2022/02/11 05:29:03;;;;;;;;;;;21.70;32.10;;;;;;487238;243;1192;-38
2022/02/11 05:31:04;;;;;;;;;;;21.70;32.00;;;;;;486794;243;1217;-38
2022/02/11 05:33:06;;;;;;;;;;;21.70;32.10;;;;;;487265;243;1103;-38
2022/02/11 05:35:07;;;;;;;;;;;21.60;32.10;;;;;;487061;243;1306;-38
2022/02/11 05:37:08;;;;;;;;;;;21.70;32.10;;;;;;486979;243;1165;-38
2022/02/11 05:39:10;;;;;;;;;;;21.70;32.10;;;;;;486985;243;1158;-38
2022/02/11 05:41:11;;;;;;;;;;;21.70;32.10;;;;;;486908;243;1051;-38
2022/02/11 05:43:12;;;;;;;;;;;21.60;32.00;;;;;;486856;243;1502;-38
2022/02/11 05:45:14;;;;;;;;;;;21.60;32.10;;;;;;486802;243;1147;-38
2022/02/11 05:47:15;;;;;;;;;;;21.60;32.20;;;;;;486646;243;2198;-38
2022/02/11 05:49:17;;;;;;;;;;;21.60;32.20;;;;;;486811;243;1117;-38
2022/02/11 05:51:18;;;;;;;;;;;21.60;32.20;;;;;;486683;243;1162;-38
2022/02/11 05:53:19;;;;;;;;;;;21.60;32.20;;;;;;487112;243;1168;-38
2022/02/11 05:55:21;;;;;;;;;;;21.60;32.20;;;;;;486649;244;1470;-38
2022/02/11 05:57:22;;;;;;;;;;;21.60;32.20;;;;;;486381;244;1209;-38
2022/02/11 05:59:23;;;;;;;;;;;21.60;32.10;;;;;;486667;244;1159;-38
2022/02/11 06:01:25;;;;;;;;;;;21.70;32.20;;;;;;486661;245;1416;-38
2022/02/11 06:03:26;;;;;;;;;;;21.60;32.20;;;;;;486688;243;1503;-38
2022/02/11 06:05:27;;;;;;;;;;;21.60;32.20;;;;;;486829;243;1409;-38
2022/02/11 06:07:29;;;;;;;;;;;21.60;32.20;;;;;;486711;243;2132;-38
2022/02/11 06:09:30;;;;;;;;;;;21.60;32.20;;;;;;486907;243;1165;-38
2022/02/11 06:11:31;;;;;;;;;;;21.60;32.20;;;;;;486743;243;1265;-38
2022/02/11 06:13:33;;;;;;;;;;;21.60;32.20;;;;;;486725;243;1211;-38
2022/02/11 06:15:34;;;;;;;;;;;21.60;32.20;;;;;;486981;243;1064;-38
2022/02/11 06:17:35;;;;;;;;;;;21.60;32.20;;;;;;486700;243;1210;-38
2022/02/11 06:19:36;;;;;;;;;;;21.70;32.20;;;;;;486826;243;1058;-38
2022/02/11 06:21:38;;;;;;;;;;;21.60;32.10;;;;;;486652;243;1182;-38
2022/02/11 06:23:39;;;;;;;;;;;21.70;32.20;;;;;;486564;243;1107;-38
2022/02/11 06:25:40;;;;;;;;;;;21.70;32.20;;;;;;486618;243;1668;-38
2022/02/11 06:27:42;;;;;;;;;;;21.70;32.20;;;;;;486731;243;2135;-38
2022/02/11 06:29:43;;;;;;;;;;;21.70;32.10;;;;;;486684;243;1114;-38
2022/02/11 06:31:44;;;;;;;;;;;21.70;32.10;;;;;;486711;243;1311;-38
2022/02/11 06:33:46;;;;;;;;;;;21.70;32.20;;;;;;486664;243;1068;-38
2022/02/11 06:35:47;;;;;;;;;;;21.70;32.20;;;;;;486685;243;1133;-38
2022/02/11 06:37:50;;;;;;;;;;;21.70;32.10;;;;;;486645;243;1137;-38
2022/02/11 06:39:50;;;;;;;;;;;21.70;32.10;;;;;;486494;244;2250;-38
2022/02/11 06:41:51;;;;;;;;;;;21.60;32.20;;;;;;486688;243;1317;-38
2022/02/11 06:43:53;;;;;;;;;;;21.70;32.20;;;;;;486698;243;1203;-38
2022/02/11 06:45:54;;;;;;;;;;;21.70;32.20;;;;;;486673;243;1356;-38
2022/02/11 06:47:55;;;;;;;;;;;21.70;32.20;;;;;;486502;243;2116;-38
2022/02/11 06:49:56;;;;;;;;;;;21.70;32.20;;;;;;486664;243;1409;-38
2022/02/11 06:51:58;;;;;;;;;;;21.70;32.20;;;;;;486482;244;1397;-38
2022/02/11 06:53:59;;;;;;;;;;;21.70;32.20;;;;;;486872;243;1124;-38
2022/02/11 06:56:00;;;;;;;;;;;21.70;32.10;;;;;;486604;243;1337;-38
2022/02/11 06:58:02;;;;;;;;;;;21.60;32.10;;;;;;487749;243;1199;-38
2022/02/11 07:00:03;;;;;;;;;;;21.70;32.20;;;;;;486458;244;1148;-38
2022/02/11 07:02:04;;;;;;;;;;;21.60;32.20;;;;;;486177;244;1291;-38
2022/02/11 07:04:06;;;;;;;;;;;21.70;32.10;;;;;;486158;244;1192;-38
2022/02/11 07:06:07;;;;;;;;;;;21.60;32.20;;;;;;486169;245;1229;-38
2022/02/11 07:08:08;;;;;;;;;;;21.60;32.30;;;;;;486039;244;2186;-41
2022/02/11 07:10:11;;;;;;;;;;;21.60;32.20;;;;;;486397;244;1120;-39
2022/02/11 07:12:11;;;;;;;;;;;21.70;32.20;;;;;;486404;244;2066;-39
2022/02/11 07:14:12;;;;;;;;;;;21.60;32.20;;;;;;486491;243;1090;-39
2022/02/11 07:16:15;;;;;;;;;;;21.60;32.20;;;;;;486374;243;1323;-39
2022/02/11 07:18:16;;;;;;;;;;;21.60;32.30;;;;;;486323;243;2044;-39
2022/02/11 07:20:18;;;;;;;;;;;21.60;32.30;;;;;;486369;243;1087;-39
2022/02/11 07:22:19;;;;;;;;;;;21.70;32.30;;;;;;486020;244;1220;-39
2022/02/11 07:24:20;;;;;;;;;;;21.60;32.20;;;;;;486057;245;1230;-39
2022/02/11 07:26:21;;;;;;;;;;;21.60;32.20;;;;;;486014;244;1198;-39
2022/02/11 07:28:24;;;;;;;;;;;21.60;32.20;;;;;;485920;244;2124;-39
2022/02/11 07:30:24;;;;;;;;;;;21.60;32.20;;;;;;486103;244;1750;-39
2022/02/11 07:32:25;;;;;;;;;;;21.70;32.20;;;;;;486220;243;1191;-39
2022/02/11 07:34:27;;;;;;;;;;;21.70;32.20;;;;;;486200;243;1285;-39
2022/02/11 07:36:28;;;;;;;;;;;21.70;32.20;;;;;;486202;243;1153;-39
2022/02/11 07:38:30;;;;;;;;;;;21.70;32.20;;;;;;486209;243;1164;-39
2022/02/11 07:40:31;;;;;;;;;;;21.70;32.20;;;;;;486265;244;1441;-39
2022/02/11 07:42:33;;;;;;;;;;;21.70;32.10;;;;;;486178;243;1551;-39
2022/02/11 07:44:34;;;;;;;;;;;21.70;32.10;;;;;;486644;243;1140;-39
2022/02/11 07:46:35;;;;;;;;;;;21.80;32.20;;;;;;486311;243;1368;-39
2022/02/11 07:48:37;;;;;;;;;;;21.70;32.10;;;;;;486359;243;2136;-39
2022/02/11 07:50:38;;;;;;;;;;;21.80;32.10;;;;;;486276;243;1270;-39
2022/02/11 07:52:40;;;;;;;;;;;21.70;32.10;;;;;;486353;243;1159;-39
2022/02/11 07:54:42;;;;;;;;;;;21.70;32.10;;;;;;486302;243;1233;-39
2022/02/11 07:56:43;;;;;;;;;;;21.70;32.10;;;;;;486232;244;1270;-39
2022/02/11 07:58:44;;;;;;;;;;;21.70;32.10;;;;;;486361;243;1220;-39
2022/02/11 08:00:46;;;;;;;;;;;21.80;32.10;;;;;;486294;243;1314;-39
2022/02/11 08:02:47;;;;;;;;;;;21.70;32.10;;;;;;486288;243;1248;-39
2022/02/11 08:04:48;;;;;;;;;;;21.70;32.30;;;;;;486267;243;1068;-39
2022/02/11 08:06:50;;;;;;;;;;;21.60;32.20;;;;;;486143;243;1350;-39
2022/02/11 08:08:51;;;;;;;;;;;21.60;32.30;;;;;;486136;243;2410;-39
2022/02/11 08:10:52;;;;;;;;;;;21.70;32.30;;;;;;486036;243;1190;-39
2022/02/11 08:12:54;;;;;;;;;;;21.60;32.30;;;;;;486173;243;1246;-39
2022/02/11 08:14:55;;;;;;;;;;;21.70;32.30;;;;;;486292;243;1081;-39
2022/02/11 08:16:56;;;;;;;;;;;21.70;32.20;;;;;;486287;243;1204;-39
2022/02/11 08:18:58;;;;;;;;;;;21.60;32.30;;;;;;486253;243;1601;-39
2022/02/11 08:20:59;;;;;;;;;;;21.60;32.30;;;;;;486140;243;1333;-39
2022/02/11 08:23:01;;;;;;;;;;;21.60;32.20;;;;;;486165;243;1124;-39
2022/02/11 08:25:02;;;;;;;;;;;21.60;32.30;;;;;;486077;243;1078;-39
2022/02/11 08:27:03;;;;;;;;;;;21.60;32.30;;;;;;486119;243;2191;-39
2022/02/11 08:29:08;;;;;;;;;;;21.70;32.30;;;;;;486297;243;1092;-39
2022/02/11 08:31:06;;;;;;;;;;;21.70;32.30;;;;;;485768;244;1314;-39
2022/02/11 08:33:07;;;;;;;;;;;21.70;32.30;;;;;;486591;243;1223;-39
2022/02/11 08:35:09;;;;;;;;;;;21.70;32.30;;;;;;486283;243;1064;-39
2022/02/11 08:37:10;;;;;;;;;;;21.70;32.20;;;;;;486351;243;1219;-36
2022/02/11 08:39:11;;;;;;;;;;;21.70;32.20;;;;;;486906;243;1196;-39
2022/02/11 08:41:13;;;;;;;;;;;21.70;32.20;;;;;;486101;243;1326;-39
2022/02/11 08:43:14;;;;;;;;;;;21.60;32.20;;;;;;486942;243;886;-39
2022/02/11 08:45:15;;;;;;;;;;;21.70;32.20;;;;;;486834;243;1120;-39
2022/02/11 08:47:17;;;;;;;;;;;21.70;32.20;;;;;;486269;243;2186;-39
2022/02/11 08:49:18;;;;;;;;;;;21.60;32.20;;;;;;486145;243;1193;-39
2022/02/11 08:51:19;;;;;;;;;;;21.70;32.20;;;;;;486092;243;1614;-39
2022/02/11 08:53:22;;;;;;;;;;;21.70;32.10;;;;;;486843;243;1063;-39
2022/02/11 08:55:23;;;;;;;;;;;21.70;32.10;;;;;;486879;243;1892;-38
2022/02/11 08:57:24;;;;;;;;;;;21.70;32.10;;;;;;485882;243;1160;-39
2022/02/11 08:59:25;;;;;;;;;;;21.70;32.00;;;;;;485981;243;1423;-39
2022/02/11 09:01:27;;;;;;;;;;;21.70;32.00;;;;;;486103;243;1161;-39
2022/02/11 09:03:28;;;;;;;;;;;21.70;32.10;;;;;;486016;243;1065;-39
2022/02/11 09:05:29;;;;;;;;;;;21.70;32.20;;;;;;485988;243;1099;-39
2022/02/11 09:07:31;;;;;;;;;;;21.70;32.20;;;;;;485453;243;2198;-39
2022/02/11 09:09:32;;;;;;;;;;;21.70;32.10;;;;;;485587;243;1146;-39
2022/02/11 09:11:33;;;;;;;;;;;21.60;32.10;;;;;;486011;243;1354;-39
2022/02/11 09:13:35;;;;;;;;;;;21.70;32.10;;;;;;486267;243;1255;-39
2022/02/11 09:15:36;;;;;;;;;;;21.60;32.00;;;;;;486237;243;1732;-39
2022/02/11 09:17:37;;;;;;;;;;;21.70;32.10;;;;;;486134;243;1560;-39
2022/02/11 09:19:39;;;;;;;;;;;21.60;32.10;;;;;;486152;243;1094;-39
2022/02/11 09:21:40;;;;;;;;;;;21.60;32.10;;;;;;486153;243;1320;-39
2022/02/11 09:23:41;;;;;;;;;;;21.60;32.00;;;;;;486276;243;1240;-39
2022/02/11 09:25:43;;;;;;;;;;;21.60;32.00;;;;;;486236;243;1362;-39
2022/02/11 09:27:44;;;;;;;;;;;21.60;32.00;;;;;;486180;243;2211;-39
2022/02/11 09:29:46;;;;;;;;;;;21.60;32.10;;;;;;486126;243;1131;-39
2022/02/11 09:31:47;;;;;;;;;;;21.60;32.10;;;;;;486318;244;1197;-39
2022/02/11 09:33:48;;;;;;;;;;;21.60;32.00;;;;;;486950;243;1091;-39
2022/02/11 09:35:50;;;;;;;;;;;21.60;32.10;;;;;;486274;243;1322;-39
2022/02/11 09:37:52;;;;;;;;;;;21.60;32.10;;;;;;486107;243;1268;-39
2022/02/11 09:39:53;;;;;;;;;;;21.50;32.00;;;;;;486200;243;1134;-39
2022/02/11 09:41:54;;;;;;;;;;;21.60;32.00;;;;;;486134;243;1516;-39
2022/02/11 09:43:56;;;;;;;;;;;21.60;31.90;;;;;;486158;243;1153;-39
2022/02/11 09:45:57;;;;;;;;;;;21.70;32.00;;;;;;486331;243;1124;-39
2022/02/11 09:47:59;;;;;;;;;;;21.70;32.00;;;;;;486113;243;2181;-39
2022/02/11 09:50:00;;;;;;;;;;;21.60;31.90;;;;;;486147;243;1190;-39
2022/02/11 09:52:03;;;;;;;;;;;21.60;31.90;;;;;;486148;243;1331;-39
2022/02/11 09:54:02;;;;;;;;;;;21.60;31.90;;;;;;486072;244;2028;-39
2022/02/11 09:56:04;;;;;;;;;;;21.60;31.90;;;;;;486150;243;1122;-39
2022/02/11 09:58:05;;;;;;;;;;;21.70;31.90;;;;;;486230;243;1186;-39
2022/02/11 10:00:06;;;;;;;;;;;21.60;31.80;;;;;;486356;243;1049;-39
2022/02/11 10:02:09;;;;;;;;;;;21.70;31.90;;;;;;486120;243;1264;-39
2022/02/11 10:04:09;;;;;;;;;;;21.60;31.80;;;;;;486261;244;1960;-39
2022/02/11 10:06:11;;;;;;;;;;;21.70;31.90;;;;;;486402;243;1315;-39
2022/02/11 10:08:12;;;;;;;;;;;21.60;31.80;;;;;;486361;243;2194;-39
2022/02/11 10:10:17;;;;;;;;;;;21.60;31.80;;;;;;486382;243;1075;-39
2022/02/11 10:12:15;;;;;;;;;;;21.60;31.80;;;;;;485950;244;2387;-39
2022/02/11 10:14:16;;;;;;;;;;;21.60;31.90;;;;;;486077;243;1202;-39
2022/02/11 10:16:18;;;;;;;;;;;21.60;31.80;;;;;;486002;243;1634;-39
2022/02/11 10:18:19;;;;;;;;;;;21.60;31.80;;;;;;486036;244;2220;-39
2022/02/11 10:20:20;;;;;;;;;;;21.60;31.80;;;;;;485996;243;1264;-39
2022/02/11 10:22:22;;;;;;;;;;;21.60;31.80;;;;;;486111;243;1159;-39
2022/02/11 10:24:23;;;;;;;;;;;21.60;31.80;;;;;;486264;243;1055;-39
2022/02/11 10:26:26;;;;;;;;;;;21.60;31.70;;;;;;486273;243;1302;-39
2022/02/11 10:28:26;;;;;;;;;;;21.60;31.80;;;;;;486032;244;2194;-39
2022/02/11 10:30:27;;;;;;;;;;;21.60;31.80;;;;;;486158;243;1101;-39
2022/02/11 10:32:29;;;;;;;;;;;21.60;31.80;;;;;;486017;243;1315;-39
2022/02/11 10:34:30;;;;;;;;;;;21.70;31.80;;;;;;486199;243;1048;-39
2022/02/11 10:36:31;;;;;;;;;;;21.60;31.70;;;;;;486029;243;1197;-39
2022/02/11 10:38:34;;;;;;;;;;;21.50;31.70;;;;;;486401;243;1385;-39
2022/02/11 10:40:34;;;;;;;;;;;21.60;31.70;;;;;;486230;244;2018;-39
2022/02/11 10:42:35;;;;;;;;;;;21.60;31.80;;;;;;486253;243;1188;-39
2022/02/11 10:44:37;;;;;;;;;;;21.60;31.70;;;;;;486269;243;1072;-39
2022/02/11 10:46:38;;;;;;;;;;;21.60;31.60;;;;;;486195;243;1375;-39
2022/02/11 10:48:40;;;;;;;;;;;21.60;31.60;;;;;;486231;243;2976;-39
2022/02/11 10:50:41;;;;;;;;;;;21.60;31.60;;;;;;486418;243;1333;-39
2022/02/11 10:52:42;;;;;;;;;;;21.70;31.60;;;;;;486166;243;1198;-39
2022/02/11 10:54:43;;;;;;;;;;;21.60;31.50;;;;;;486003;243;1092;-39
2022/02/11 10:56:45;;;;;;;;;;;21.60;31.60;;;;;;486013;243;1599;-39
2022/02/11 10:58:47;;;;;;;;;;;21.60;31.60;;;;;;486323;243;1263;-39
2022/02/11 11:00:47;;;;;;;;;;;21.60;31.60;;;;;;486088;243;2116;-39
2022/02/11 11:02:49;;;;;;;;;;;21.70;31.50;;;;;;486316;243;1305;-39
2022/02/11 11:04:50;;;;;;;;;;;21.60;31.50;;;;;;486233;243;1211;-39
2022/02/11 11:06:53;;;;;;;;;;;21.70;31.50;;;;;;486221;243;1305;-39
2022/02/11 11:08:57;;;;;;;;;;;21.70;31.50;;;;;;486210;243;2186;-39
2022/02/11 11:10:57;;;;;;;;;;;21.60;31.40;;;;;;486145;244;2283;-39
2022/02/11 11:12:58;;;;;;;;;;;21.70;31.50;;;;;;486219;243;1225;-39
2022/02/11 11:14:59;;;;;;;;;;;21.60;31.40;;;;;;486241;243;1277;-39
2022/02/11 11:17:00;;;;;;;;;;;21.60;31.40;;;;;;486094;243;1368;-39
2022/02/11 11:19:02;;;;;;;;;;;21.60;31.50;;;;;;486209;243;1245;-39
2022/02/11 11:21:04;;;;;;;;;;;21.60;31.40;;;;;;486166;243;1387;-39
2022/02/11 11:23:05;;;;;;;;;;;21.60;31.40;;;;;;486926;243;976;-39
2022/02/11 11:25:06;;;;;;;;;;;21.60;31.50;;;;;;486161;243;1329;-39
2022/02/11 11:27:07;;;;;;;;;;;21.60;31.40;;;;;;486316;243;1217;-39
2022/02/11 11:29:09;;;;;;;;;;;21.60;31.50;;;;;;486289;243;2175;-39
2022/02/11 11:31:10;;;;;;;;;;;21.50;31.40;;;;;;486097;243;1340;-39
2022/02/11 11:33:11;;;;;;;;;;;21.60;31.40;;;;;;486202;243;1136;-39
2022/02/11 11:35:13;;;;;;;;;;;21.60;31.40;;;;;;486240;243;1130;-40
2022/02/11 11:37:14;;;;;;;;;;;21.60;31.30;;;;;;486097;243;1321;-39
2022/02/11 11:39:16;;;;;;;;;;;21.60;31.30;;;;;;486148;243;1228;-39
2022/02/11 11:41:17;;;;;;;;;;;21.60;31.30;;;;;;486089;243;1227;-39
2022/02/11 11:43:18;;;;;;;;;;;21.60;31.30;;;;;;486288;243;1189;-39
2022/02/11 11:45:19;;;;;;;;;;;21.60;31.40;;;;;;486249;243;1223;-39
2022/02/11 11:47:21;;;;;;;;;;;21.50;31.40;;;;;;486309;243;1210;-39
2022/02/11 11:49:26;;;;;;;;;;;21.60;31.40;;;;;;486103;243;2182;-39
2022/02/11 11:51:24;;;;;;;;;;;21.50;31.30;;;;;;485977;244;2210;-39
2022/02/11 11:53:26;;;;;;;;;;;21.60;31.30;;;;;;486253;243;1252;-39
2022/02/11 11:55:27;;;;;;;;;;;21.60;31.30;;;;;;486335;243;2152;-39
2022/02/11 11:57:28;;;;;;;;;;;21.60;31.20;;;;;;486283;243;1216;-39
2022/02/11 11:59:29;;;;;;;;;;;21.50;31.20;;;;;;486372;243;1082;-39
2022/02/11 12:01:31;;;;;;;;;;;21.60;31.20;;;;;;486259;243;1341;-39
2022/02/11 12:03:33;;;;;;;;;;;21.60;31.20;;;;;;486271;243;1207;-39
2022/02/11 12:05:33;;;;;;;;;;;21.60;31.10;;;;;;486212;243;1833;-39
2022/02/11 12:07:35;;;;;;;;;;;21.60;31.10;;;;;;486285;243;1194;-39
2022/02/11 12:09:36;;;;;;;;;;;21.60;31.20;;;;;;486185;243;2178;-39
2022/02/11 12:11:37;;;;;;;;;;;21.60;31.20;;;;;;486096;243;1287;-39
2022/02/11 12:13:39;;;;;;;;;;;21.60;31.10;;;;;;486489;243;1253;-39
2022/02/11 12:15:40;;;;;;;;;;;21.60;31.00;;;;;;486118;243;1338;-39
2022/02/11 12:17:41;;;;;;;;;;;21.60;31.00;;;;;;486288;243;1355;-39
2022/02/11 12:19:44;;;;;;;;;;;21.60;31.00;;;;;;486179;243;1215;-39
2022/02/11 12:21:44;;;;;;;;;;;21.60;31.10;;;;;;486247;243;2088;-36
2022/02/11 12:28:25;;;;;;;;;;;21.70;31.00;;;;;;486245;244;1197;-39
2022/02/11 12:30:27;;;;;;;;;;;21.70;31.00;;;;;;486142;243;2190;-39
2022/02/11 12:32:27;;;;;;;;;;;21.70;30.90;;;;;;486116;245;2136;-39
2022/02/11 12:34:29;;;;;;;;;;;21.70;31.00;;;;;;486061;243;1068;-39
2022/02/11 12:36:30;;;;;;;;;;;21.60;30.90;;;;;;486079;243;1151;-39
2022/02/11 12:38:31;;;;;;;;;;;21.60;31.00;;;;;;486273;243;1166;-39
2022/02/11 12:40:33;;;;;;;;;;;21.70;31.00;;;;;;486298;243;1317;-39
2022/02/11 12:42:35;;;;;;;;;;;21.60;30.90;;;;;;486297;243;1325;-39
2022/02/11 12:44:35;;;;;;;;;;;21.60;31.00;;;;;;486368;243;1485;-39
2022/02/11 12:46:37;;;;;;;;;;;21.60;30.90;;;;;;486259;243;1493;-39
2022/02/11 12:48:40;;;;;;;;;;;21.60;31.00;;;;;;486418;243;2135;-39
2022/02/11 12:50:39;;;;;;;;;;;21.50;30.90;;;;;;486228;243;2234;-39
2022/02/11 12:52:40;;;;;;;;;;;21.60;31.00;;;;;;486362;243;1161;-39
2022/02/11 12:54:42;;;;;;;;;;;21.60;30.90;;;;;;486142;243;1197;-39
2022/02/11 12:56:44;;;;;;;;;;;21.60;30.90;;;;;;486160;243;1311;-39
2022/02/11 12:58:44;;;;;;;;;;;21.60;30.90;;;;;;486181;244;2139;-39
2022/02/11 13:00:48;;;;;;;;;;;21.60;30.90;;;;;;486181;243;1220;-39
2022/02/11 13:02:50;;;;;;;;;;;21.60;30.90;;;;;;486458;243;1910;-39
2022/02/11 13:04:49;;;;;;;;;;;21.60;31.00;;;;;;486104;243;2143;-39
2022/02/11 13:06:51;;;;;;;;;;;21.60;31.00;;;;;;486084;243;1195;-39
2022/02/11 13:08:52;;;;;;;;;;;21.60;30.90;;;;;;486091;243;2123;-39
2022/02/11 13:10:53;;;;;;;;;;;21.60;30.90;;;;;;486150;243;1307;-39
2022/02/11 13:12:55;;;;;;;;;;;21.60;30.90;;;;;;486090;243;1306;-39
2022/02/11 13:14:56;;;;;;;;;;;21.60;30.90;;;;;;486264;243;1306;-39
2022/02/11 13:16:57;;;;;;;;;;;21.60;30.90;;;;;;486141;243;1252;-39
2022/02/11 13:18:59;;;;;;;;;;;21.60;30.90;;;;;;486393;243;1078;-39
2022/02/11 13:21:00;;;;;;;;;;;21.60;30.90;;;;;;486471;243;1639;-39
2022/02/11 13:23:01;;;;;;;;;;;21.50;30.80;;;;;;486292;243;1134;-39
2022/02/11 13:25:03;;;;;;;;;;;21.60;30.90;;;;;;486130;243;1273;-39
2022/02/11 13:27:04;;;;;;;;;;;21.60;30.90;;;;;;486490;243;1211;-39
2022/02/11 13:29:05;;;;;;;;;;;21.60;30.90;;;;;;486442;243;2214;-39
2022/02/11 13:31:07;;;;;;;;;;;21.60;30.90;;;;;;486452;243;1400;-39
2022/02/11 13:33:08;;;;;;;;;;;21.60;30.80;;;;;;486398;243;1104;-39
2022/02/11 13:35:09;;;;;;;;;;;21.60;30.80;;;;;;486139;243;1324;-39
2022/02/11 13:37:11;;;;;;;;;;;21.60;30.80;;;;;;486408;243;1226;-39
2022/02/11 13:39:12;;;;;;;;;;;21.60;30.80;;;;;;486260;243;1234;-39
2022/02/11 13:41:13;;;;;;;;;;;21.60;30.80;;;;;;486300;243;1700;-39
2022/02/11 13:43:15;;;;;;;;;;;21.60;30.80;;;;;;486671;243;1046;-39
2022/02/11 13:45:16;;;;;;;;;;;21.60;30.70;;;;;;486326;243;1202;-39
2022/02/11 13:47:17;;;;;;;;;;;21.60;30.70;;;;;;486284;243;1527;-39
2022/02/11 13:49:20;;;;;;;;;;;21.60;30.70;;;;;;486359;243;2116;-39
2022/02/11 13:51:20;;;;;;;;;;;21.60;30.70;;;;;;486184;243;2034;-39
2022/02/11 13:53:21;;;;;;;;;;;21.60;30.70;;;;;;486399;243;1205;-39
2022/02/11 13:55:23;;;;;;;;;;;21.50;30.70;;;;;;486221;243;1208;-39
2022/02/11 13:57:24;;;;;;;;;;;21.60;30.70;;;;;;486431;243;1227;-39
2022/02/11 13:59:25;;;;;;;;;;;21.60;30.70;;;;;;486103;243;1230;-39
2022/02/11 14:01:27;;;;;;;;;;;21.60;30.70;;;;;;486173;243;1345;-39
2022/02/11 14:03:28;;;;;;;;;;;21.60;30.70;;;;;;486172;243;1223;-39
2022/02/11 14:05:31;;;;;;;;;;;21.60;30.70;;;;;;486366;243;1098;-39
2022/02/11 14:07:31;;;;;;;;;;;21.60;30.70;;;;;;486334;244;2195;-39
2022/02/11 14:09:32;;;;;;;;;;;21.60;30.60;;;;;;486264;243;2116;-39
2022/02/11 14:11:33;;;;;;;;;;;21.60;30.60;;;;;;486228;243;1291;-39
2022/02/11 14:13:35;;;;;;;;;;;21.60;30.70;;;;;;486389;243;1299;-39
2022/02/11 14:15:36;;;;;;;;;;;21.60;30.60;;;;;;486422;243;1225;-39
2022/02/11 14:17:40;;;;;;;;;;;21.50;30.60;;;;;;486423;243;1205;-39
2022/02/11 14:19:41;;;;;;;;;;;21.60;30.60;;;;;;486315;244;2137;-39
2022/02/11 14:21:40;;;;;;;;;;;21.50;30.60;;;;;;486131;244;2115;-39
2022/02/11 14:23:41;;;;;;;;;;;21.50;30.70;;;;;;486440;243;1226;-39
2022/02/11 14:25:43;;;;;;;;;;;21.60;30.70;;;;;;486392;243;1301;-39
2022/02/11 14:27:44;;;;;;;;;;;21.60;30.60;;;;;;486368;243;1209;-39
2022/02/11 14:29:46;;;;;;;;;;;21.60;30.60;;;;;;486461;243;2131;-39
2022/02/11 14:31:47;;;;;;;;;;;21.60;30.60;;;;;;486258;243;1349;-39
2022/02/11 14:33:48;;;;;;;;;;;21.60;30.60;;;;;;486416;243;1261;-39
2022/02/11 14:35:50;;;;;;;;;;;21.50;30.50;;;;;;486294;243;1338;-39
2022/02/11 14:37:51;;;;;;;;;;;21.60;30.60;;;;;;486392;243;1215;-39
2022/02/11 14:39:53;;;;;;;;;;;21.60;30.50;;;;;;486532;243;1075;-39
2022/02/11 14:41:55;;;;;;;;;;;21.60;30.40;;;;;;486587;243;1365;-39
2022/02/11 14:43:55;;;;;;;;;;;21.60;30.50;;;;;;486387;244;2289;-39
2022/02/11 14:45:57;;;;;;;;;;;21.60;30.60;;;;;;486294;243;1346;-39
2022/02/11 14:47:58;;;;;;;;;;;21.60;30.50;;;;;;486336;243;1108;-39
2022/02/11 14:49:59;;;;;;;;;;;21.60;30.50;;;;;;486322;243;2194;-39